createdAt,value
2018-08-22T00:01:25.061Z,55.90
2018-08-22T00:03:53.038Z,55.90
2018-08-22T00:06:21.000Z,56.00
2018-08-22T00:08:48.988Z,56.30
2018-08-22T00:11:17.389Z,56.40
2018-08-22T00:13:45.344Z,56.50
2018-08-22T00:16:13.302Z,56.80
2018-08-22T00:18:41.342Z,56.90
2018-08-22T00:21:09.290Z,57.00
2018-08-22T00:23:37.278Z,57.00
2018-08-22T00:26:05.314Z,57.00
2018-08-22T00:28:33.307Z,57.00
2018-08-22T00:31:01.304Z,56.90
2018-08-22T00:33:29.257Z,56.80
2018-08-22T00:35:57.230Z,56.80
2018-08-22T00:38:25.479Z,56.70
2018-08-22T00:40:53.437Z,56.70
2018-08-22T00:43:21.384Z,56.90
2018-08-22T00:45:49.671Z,57.00
2018-08-22T00:48:17.624Z,57.00
2018-08-22T00:50:45.575Z,57.10
2018-08-22T00:53:13.552Z,57.10
2018-08-22T00:55:41.603Z,57.00
2018-08-22T00:58:09.551Z,57.10
2018-08-22T01:00:37.537Z,57.20
2018-08-22T01:03:05.478Z,57.30
2018-08-22T01:05:33.448Z,57.20
2018-08-22T01:08:01.422Z,57.20
2018-08-22T01:10:29.384Z,57.10
2018-08-22T01:12:57.661Z,57.10
2018-08-22T01:15:25.623Z,57.70
2018-08-22T01:17:53.613Z,57.00
2018-08-22T01:20:21.590Z,57.00
2018-08-22T01:22:49.694Z,57.00
2018-08-22T01:25:17.669Z,56.90
2018-08-22T01:27:46.096Z,57.00
2018-08-22T01:30:14.090Z,57.00
2018-08-22T01:32:42.037Z,57.00
2018-08-22T01:35:10.010Z,57.00
2018-08-22T01:37:37.963Z,57.00
2018-08-22T01:40:05.930Z,57.10
2018-08-22T01:42:33.861Z,57.20
2018-08-22T01:45:01.826Z,57.20
2018-08-22T01:47:29.776Z,57.30
2018-08-22T01:49:57.707Z,57.40
2018-08-22T01:52:25.682Z,57.50
2018-08-22T01:54:53.621Z,57.50
2018-08-22T01:57:21.567Z,57.50
2018-08-22T01:59:49.678Z,57.50
2018-08-22T02:02:17.658Z,57.60
2018-08-22T02:04:45.625Z,57.70
2018-08-22T02:07:13.622Z,57.80
2018-08-22T02:09:41.588Z,57.80
2018-08-22T02:12:09.561Z,57.70
2018-08-22T02:14:37.493Z,57.80
2018-08-22T02:17:05.427Z,57.80
2018-08-22T02:19:33.398Z,57.80
2018-08-22T02:22:01.335Z,57.90
2018-08-22T02:24:29.593Z,57.80
2018-08-22T02:26:57.574Z,58.00
2018-08-22T02:29:25.560Z,58.10
2018-08-22T02:31:53.522Z,58.10
2018-08-22T02:34:21.471Z,58.10
2018-08-22T02:36:49.449Z,58.30
2018-08-22T02:39:17.413Z,58.30
2018-08-22T02:41:46.231Z,58.30
2018-08-22T02:44:14.204Z,58.30
2018-08-22T02:46:42.176Z,58.40
2018-08-22T02:49:15.129Z,58.50
2018-08-22T02:51:43.074Z,58.60
2018-08-22T02:54:11.070Z,58.60
2018-08-22T02:56:39.039Z,58.70
2018-08-22T02:59:06.990Z,58.80
2018-08-22T03:01:34.961Z,58.80
2018-08-22T03:04:02.914Z,58.90
2018-08-22T03:06:31.126Z,59.20
2018-08-22T03:08:59.080Z,59.40
2018-08-22T03:11:27.036Z,61.50
2018-08-22T03:13:55.019Z,62.50
2018-08-22T03:16:22.975Z,63.20
2018-08-22T03:18:51.064Z,64.80
2018-08-22T03:21:19.036Z,67.60
2018-08-22T03:23:47.303Z,58.80
2018-08-22T03:26:15.300Z,59.50
2018-08-22T03:28:43.180Z,59.40
2018-08-22T03:31:11.191Z,59.50
2018-08-22T03:33:39.163Z,59.60
2018-08-22T03:36:07.174Z,59.60
2018-08-22T03:38:35.109Z,59.70
2018-08-22T03:41:03.083Z,59.70
2018-08-22T03:43:31.060Z,59.80
2018-08-22T03:45:59.029Z,59.90
2018-08-22T03:48:26.976Z,59.80
2018-08-22T03:50:54.952Z,59.90
2018-08-22T03:53:22.926Z,59.90
2018-08-22T03:55:50.866Z,59.80
2018-08-22T03:58:18.852Z,60.00
2018-08-22T04:00:46.822Z,60.00
2018-08-22T04:03:14.785Z,60.00
2018-08-22T04:05:42.733Z,60.00
2018-08-22T04:08:10.684Z,60.20
2018-08-22T04:10:38.712Z,60.40
2018-08-22T04:13:06.990Z,60.30
2018-08-22T04:15:34.938Z,60.40
2018-08-22T04:18:02.895Z,60.40
2018-08-22T04:20:30.856Z,60.50
2018-08-22T04:22:58.871Z,60.60
2018-08-22T04:25:30.718Z,60.60
2018-08-22T04:27:58.804Z,60.60
2018-08-22T04:30:26.800Z,60.80
2018-08-22T04:32:54.744Z,60.90
2018-08-22T04:35:22.856Z,61.00
2018-08-22T04:37:50.832Z,61.10
2018-08-22T04:40:18.790Z,61.20
2018-08-22T04:42:46.755Z,61.30
2018-08-22T04:45:14.744Z,61.00
2018-08-22T04:47:42.728Z,61.40
2018-08-22T04:50:10.688Z,61.90
2018-08-22T04:52:38.698Z,61.60
2018-08-22T04:55:06.910Z,61.50
2018-08-22T04:57:34.879Z,61.40
2018-08-22T05:00:02.844Z,61.50
2018-08-22T05:02:30.816Z,61.60
2018-08-22T05:04:58.770Z,61.60
2018-08-22T05:07:26.727Z,61.60
2018-08-22T05:09:54.715Z,61.60
2018-08-22T05:12:22.755Z,62.00
2018-08-22T05:14:50.707Z,62.30
2018-08-22T05:17:18.676Z,62.30
2018-08-22T05:19:46.639Z,62.30
2018-08-22T05:22:14.608Z,62.40
2018-08-22T05:24:42.659Z,62.40
2018-08-22T05:27:11.034Z,62.40
2018-08-22T05:29:39.030Z,62.30
2018-08-22T05:32:07.008Z,62.10
2018-08-22T05:34:36.012Z,62.10
2018-08-22T05:37:05.160Z,62.10
2018-08-22T05:39:33.125Z,62.00
2018-08-22T05:42:01.083Z,62.00
2018-08-22T05:44:29.085Z,61.80
2018-08-22T05:46:57.132Z,61.80
2018-08-22T05:49:25.260Z,61.90
2018-08-22T05:51:53.212Z,62.00
2018-08-22T05:54:21.169Z,62.00
2018-08-22T05:56:53.958Z,61.80
2018-08-22T05:59:21.909Z,61.90
2018-08-22T06:01:49.871Z,61.70
2018-08-22T06:04:18.049Z,61.70
2018-08-22T06:06:46.006Z,61.60
2018-08-22T06:09:14.021Z,61.70
2018-08-22T06:11:43.487Z,61.60
2018-08-22T06:14:12.201Z,61.60
2018-08-22T06:16:40.171Z,61.60
2018-08-22T06:19:08.197Z,61.60
2018-08-22T06:21:42.950Z,62.30
2018-08-22T06:24:11.234Z,61.30
2018-08-22T06:26:39.188Z,61.10
2018-08-22T06:29:07.187Z,61.00
2018-08-22T06:31:35.165Z,61.00
2018-08-22T06:34:03.407Z,61.00
2018-08-22T06:36:31.392Z,60.90
2018-08-22T06:38:59.349Z,60.70
2018-08-22T06:41:27.338Z,60.60
2018-08-22T06:43:55.318Z,60.60
2018-08-22T06:46:23.350Z,60.50
2018-08-22T06:48:51.336Z,60.40
2018-08-22T06:51:19.308Z,60.20
2018-08-22T06:53:47.424Z,60.10
2018-08-22T06:56:15.377Z,59.70
2018-08-22T06:58:43.326Z,59.70
2018-08-22T07:01:11.332Z,59.50
2018-08-22T07:03:39.285Z,59.30
2018-08-22T07:06:07.280Z,59.20
2018-08-22T07:08:35.273Z,59.20
2018-08-22T07:11:03.281Z,58.90
2018-08-22T07:13:31.244Z,58.60
2018-08-22T07:15:59.263Z,58.70
2018-08-22T07:18:27.257Z,58.70
2018-08-22T07:20:55.287Z,58.70
2018-08-22T07:23:23.261Z,58.50
2018-08-22T07:25:51.223Z,58.30
2018-08-22T07:28:19.189Z,57.70
2018-08-22T07:30:47.176Z,57.50
2018-08-22T07:33:15.139Z,57.50
2018-08-22T07:35:43.221Z,57.20
2018-08-22T07:38:11.217Z,57.00
2018-08-22T07:40:39.177Z,57.00
2018-08-22T07:43:07.592Z,57.00
2018-08-22T07:45:35.538Z,57.00
2018-08-22T07:48:03.636Z,56.80
2018-08-22T07:50:31.919Z,56.20
2018-08-22T07:53:03.258Z,56.10
2018-08-22T07:55:34.708Z,56.00
2018-08-22T07:58:02.708Z,55.70
2018-08-22T08:00:30.660Z,55.60
2018-08-22T08:02:59.312Z,55.60
2018-08-22T08:05:27.307Z,55.30
2018-08-22T08:07:55.268Z,55.00
2018-08-22T08:10:28.719Z,54.90
2018-08-22T08:12:56.720Z,54.90
2018-08-22T08:15:24.674Z,54.60
2018-08-22T08:17:52.715Z,54.50
2018-08-22T08:20:20.860Z,54.20
2018-08-22T08:22:48.867Z,54.00
2018-08-22T08:25:17.123Z,54.00
2018-08-22T08:27:45.068Z,53.70
2018-08-22T08:30:13.096Z,53.40
2018-08-22T08:32:41.072Z,53.30
2018-08-22T08:35:09.076Z,53.20
2018-08-22T08:37:37.042Z,53.30
2018-08-22T08:40:05.100Z,52.00
2018-08-22T08:42:33.104Z,52.40
2018-08-22T08:45:04.652Z,52.60
2018-08-22T08:47:32.631Z,52.10
2018-08-22T08:50:00.599Z,51.90
2018-08-22T08:52:28.560Z,51.00
2018-08-22T08:54:56.522Z,50.70
2018-08-22T08:57:24.542Z,51.00
2018-08-22T08:59:52.475Z,50.70
2018-08-22T09:02:20.783Z,50.10
2018-08-22T09:04:48.715Z,50.40
2018-08-22T09:07:16.741Z,50.10
2018-08-22T09:09:44.718Z,50.00
2018-08-22T09:12:12.720Z,49.90
2018-08-22T09:14:40.690Z,50.10
2018-08-22T09:17:08.788Z,50.00
2018-08-22T09:19:36.780Z,49.70
2018-08-22T09:22:05.003Z,49.60
2018-08-22T09:24:32.978Z,49.80
2018-08-22T09:27:00.956Z,50.10
2018-08-22T09:29:28.976Z,50.10
2018-08-22T09:31:56.935Z,50.30
2018-08-22T09:34:24.979Z,50.40
2018-08-22T09:36:52.933Z,50.10
2018-08-22T09:39:20.919Z,50.30
2018-08-22T09:41:48.857Z,49.80
2018-08-22T09:44:16.831Z,49.70
2018-08-22T09:46:45.968Z,49.90
2018-08-22T09:49:13.865Z,50.10
2018-08-22T09:51:42.309Z,50.30
2018-08-22T09:54:10.267Z,50.30
2018-08-22T09:56:38.232Z,50.40
2018-08-22T09:59:06.204Z,50.10
2018-08-22T10:01:39.692Z,49.20
2018-08-22T10:04:07.717Z,48.80
2018-08-22T10:06:40.523Z,48.80
2018-08-22T10:09:10.326Z,48.90
2018-08-22T10:11:38.317Z,48.70
2018-08-22T10:14:06.377Z,48.70
2018-08-22T10:16:34.322Z,48.60
2018-08-22T10:19:02.348Z,48.40
2018-08-22T10:21:30.288Z,48.20
2018-08-22T10:23:58.244Z,48.20
2018-08-22T10:26:26.254Z,48.20
2018-08-22T10:28:54.491Z,47.90
2018-08-22T10:31:22.921Z,48.10
2018-08-22T10:33:50.896Z,48.00
2018-08-22T10:36:26.132Z,48.10
2018-08-22T10:38:54.148Z,46.90
2018-08-22T10:41:22.096Z,46.60
2018-08-22T10:43:50.091Z,46.40
2018-08-22T10:46:18.154Z,46.00
2018-08-22T10:48:46.152Z,46.20
2018-08-22T10:51:14.116Z,46.40
2018-08-22T10:53:42.071Z,45.90
2018-08-22T10:56:10.060Z,45.70
2018-08-22T10:58:38.045Z,45.80
2018-08-22T11:01:06.276Z,45.50
2018-08-22T11:03:34.248Z,45.40
2018-08-22T11:06:02.218Z,45.00
2018-08-22T11:08:30.183Z,45.00
2018-08-22T11:10:58.135Z,45.20
2018-08-22T11:13:26.105Z,44.60
2018-08-22T11:15:54.251Z,45.00
2018-08-22T11:18:22.214Z,45.30
2018-08-22T11:20:50.394Z,44.80
2018-08-22T11:23:30.766Z,43.90
2018-08-22T11:26:10.824Z,44.40
2018-08-22T11:28:50.308Z,44.70
2018-08-22T11:31:30.104Z,45.00
2018-08-22T11:34:10.078Z,45.40
2018-08-22T11:36:37.714Z,45.30
2018-08-22T11:39:06.920Z,45.20
2018-08-22T11:41:34.909Z,44.70
2018-08-22T11:44:02.875Z,44.50
2018-08-22T11:46:30.895Z,43.50
2018-08-22T11:48:58.878Z,43.60
2018-08-22T11:51:26.839Z,43.90
2018-08-22T11:53:54.819Z,44.30
2018-08-22T11:56:22.799Z,44.40
2018-08-22T11:58:50.787Z,43.80
2018-08-22T12:01:18.799Z,43.90
2018-08-22T12:03:46.747Z,44.20
2018-08-22T12:06:14.781Z,43.50
2018-08-22T12:08:43.073Z,43.60
2018-08-22T12:11:11.043Z,43.00
2018-08-22T12:13:39.016Z,43.10
2018-08-22T12:16:07.001Z,43.10
2018-08-22T12:18:34.968Z,42.70
2018-08-22T12:21:02.976Z,41.80
2018-08-22T12:23:30.989Z,41.70
2018-08-22T12:25:58.980Z,41.50
2018-08-22T12:28:26.963Z,40.10
2018-08-22T12:30:54.925Z,40.10
2018-08-22T12:33:23.073Z,40.30
2018-08-22T12:35:51.252Z,40.60
2018-08-22T12:38:19.509Z,40.60
2018-08-22T12:43:22.432Z,41.30
2018-08-22T12:45:50.584Z,41.50
2018-08-22T12:48:18.538Z,41.90
2018-08-22T12:50:46.546Z,41.90
2018-08-22T12:53:14.599Z,42.10
2018-08-22T12:55:42.571Z,41.60
2018-08-22T12:58:10.632Z,41.60
2018-08-22T13:00:38.624Z,41.70
2018-08-22T13:03:06.604Z,41.50
2018-08-22T13:05:34.602Z,41.40
2018-08-22T13:08:02.560Z,41.20
2018-08-22T13:10:30.546Z,41.40
2018-08-22T13:12:58.536Z,41.20
2018-08-22T13:15:26.514Z,41.20
2018-08-22T13:17:54.474Z,40.90
2018-08-22T13:20:22.500Z,40.50
2018-08-22T13:22:50.477Z,40.70
2018-08-22T13:25:18.517Z,41.10
2018-08-22T13:27:46.495Z,40.80
2018-08-22T13:30:14.464Z,41.00
2018-08-22T13:32:44.522Z,41.10
2018-08-22T13:35:12.508Z,40.90
2018-08-22T13:37:40.484Z,40.70
2018-08-22T13:40:08.798Z,40.40
2018-08-22T13:42:36.773Z,40.50
2018-08-22T13:45:05.040Z,40.50
2018-08-22T13:47:32.997Z,40.80
2018-08-22T13:50:01.048Z,41.20
2018-08-22T13:52:29.034Z,41.10
2018-08-22T13:54:57.004Z,41.10
2018-08-22T13:57:25.223Z,40.90
2018-08-22T13:59:53.215Z,40.40
2018-08-22T14:02:21.188Z,40.30
2018-08-22T14:04:49.488Z,40.50
2018-08-22T14:07:17.508Z,40.60
2018-08-22T14:09:45.654Z,40.60
2018-08-22T14:12:13.626Z,40.40
2018-08-22T14:14:41.595Z,40.60
2018-08-22T14:17:09.602Z,40.20
2018-08-22T14:19:37.580Z,40.40
2018-08-22T14:22:05.632Z,40.70
2018-08-22T14:24:33.574Z,40.80
2018-08-22T14:27:01.575Z,41.10
2018-08-22T14:29:29.574Z,41.10
2018-08-22T14:31:57.553Z,41.00
2018-08-22T14:34:25.531Z,40.90
2018-08-22T14:36:53.524Z,40.90
2018-08-22T14:39:21.513Z,41.10
2018-08-22T14:41:49.452Z,41.10
2018-08-22T14:44:17.433Z,41.00
2018-08-22T14:46:45.416Z,40.70
2018-08-22T14:49:13.393Z,40.50
2018-08-22T14:51:41.369Z,40.40
2018-08-22T14:54:09.347Z,40.90
2018-08-22T14:56:37.430Z,40.50
2018-08-22T14:59:05.712Z,40.70
2018-08-22T15:01:33.709Z,41.00
2018-08-22T15:04:01.701Z,40.50
2018-08-22T15:06:29.692Z,40.70
2018-08-22T15:09:04.172Z,40.60
2018-08-22T15:11:33.491Z,40.10
2018-08-22T15:14:01.545Z,40.40
2018-08-22T15:16:29.519Z,40.20
2018-08-22T15:18:57.490Z,40.20
2018-08-22T15:21:25.478Z,40.30
2018-08-22T15:23:53.977Z,40.70
2018-08-22T15:26:21.933Z,40.80
2018-08-22T15:28:49.931Z,41.10
2018-08-22T15:31:17.975Z,40.70
2018-08-22T15:33:46.205Z,40.60
2018-08-22T15:36:14.329Z,40.40
2018-08-22T15:38:42.309Z,40.40
2018-08-22T15:41:10.355Z,40.70
2018-08-22T15:43:38.298Z,40.50
2018-08-22T15:46:06.272Z,40.60
2018-08-22T15:48:34.253Z,40.30
2018-08-22T15:51:02.447Z,40.20
2018-08-22T15:53:30.828Z,40.40
2018-08-22T15:55:58.841Z,40.70
2018-08-22T15:58:26.818Z,40.90
2018-08-22T16:00:55.571Z,40.70
2018-08-22T16:03:24.852Z,40.80
2018-08-22T16:05:53.656Z,40.40
2018-08-22T16:08:25.943Z,40.40
2018-08-22T16:10:53.884Z,40.30
2018-08-22T16:13:27.384Z,40.40
2018-08-22T16:15:56.452Z,40.20
2018-08-22T16:18:24.765Z,40.20
2018-08-22T16:20:55.122Z,40.20
2018-08-22T16:23:25.619Z,40.20
2018-08-22T16:25:54.232Z,40.20
2018-08-22T16:28:22.928Z,40.10
2018-08-22T16:30:57.172Z,40.20
2018-08-22T16:33:22.555Z,40.10
2018-08-22T16:35:50.795Z,40.30
2018-08-22T16:38:18.780Z,40.50
2018-08-22T16:40:53.958Z,40.70
2018-08-22T16:43:38.861Z,41.20
2018-08-22T16:46:11.217Z,40.80
2018-08-22T16:48:40.218Z,40.90
2018-08-22T16:51:08.174Z,40.90
2018-08-22T16:53:36.265Z,41.00
2018-08-22T16:56:04.412Z,41.10
2018-08-22T16:58:32.381Z,41.10
2018-08-22T17:01:00.344Z,41.20
2018-08-22T17:03:28.333Z,41.20
2018-08-22T17:06:02.178Z,41.20
2018-08-22T17:08:30.287Z,41.30
2018-08-22T17:11:00.663Z,41.30
2018-08-22T17:13:42.160Z,41.30
2018-08-22T17:16:10.164Z,41.60
2018-08-22T17:18:38.272Z,41.80
2018-08-22T17:21:06.680Z,41.80
2018-08-22T17:23:34.651Z,41.60
2018-08-22T17:26:02.616Z,41.80
2018-08-22T17:28:37.398Z,42.00
2018-08-22T17:31:05.457Z,42.00
2018-08-22T17:33:40.868Z,42.00
2018-08-22T17:36:09.891Z,42.00
2018-08-22T17:38:38.125Z,42.10
2018-08-22T17:41:06.120Z,42.20
2018-08-22T17:43:54.162Z,42.50
2018-08-22T17:46:23.737Z,42.50
2018-08-22T17:48:51.726Z,42.70
2018-08-22T17:51:19.705Z,43.00
2018-08-22T17:53:51.476Z,43.10
2018-08-22T17:56:21.070Z,43.20
2018-08-22T17:58:49.673Z,43.40
2018-08-22T18:01:17.659Z,43.30
2018-08-22T18:03:45.724Z,43.70
2018-08-22T18:06:13.881Z,43.70
2018-08-22T18:08:41.825Z,43.70
2018-08-22T18:11:10.159Z,43.80
2018-08-22T18:13:38.393Z,44.00
2018-08-22T18:16:06.766Z,43.90
2018-08-22T18:18:35.113Z,44.20
2018-08-22T18:21:03.363Z,44.30
2018-08-22T18:23:31.335Z,44.50
2018-08-22T18:26:02.631Z,44.60
2018-08-22T18:28:30.689Z,44.70
2018-08-22T18:30:58.936Z,44.90
2018-08-22T18:33:27.004Z,45.00
2018-08-22T18:35:54.980Z,45.20
2018-08-22T18:38:22.960Z,45.40
2018-08-22T18:41:07.375Z,45.60
2018-08-22T18:43:35.318Z,45.90
2018-08-22T18:46:05.226Z,46.00
2018-08-22T18:48:34.217Z,46.30
2018-08-22T18:51:02.701Z,46.50
2018-08-22T18:53:30.663Z,46.60
2018-08-22T18:56:10.763Z,46.80
2018-08-22T18:58:39.109Z,46.90
2018-08-22T19:01:07.284Z,47.30
2018-08-22T19:03:36.586Z,47.60
2018-08-22T19:06:04.858Z,47.90
2018-08-22T19:08:35.424Z,48.80
2018-08-22T19:11:03.478Z,49.00
2018-08-22T19:13:31.412Z,49.10
2018-08-22T19:16:01.751Z,49.50
2018-08-22T19:18:29.751Z,49.90
2018-08-22T19:21:00.062Z,50.20
2018-08-22T19:23:28.351Z,50.50
2018-08-22T19:25:57.017Z,51.10
2018-08-22T19:28:25.015Z,51.40
2018-08-22T19:30:52.970Z,51.80
2018-08-22T19:33:22.086Z,52.20
2018-08-22T19:35:50.157Z,52.60
2018-08-22T19:38:20.242Z,53.30
2018-08-22T19:40:48.288Z,53.50
2018-08-22T19:43:16.692Z,54.30
2018-08-22T19:45:44.669Z,54.40
2018-08-22T19:48:12.688Z,54.60
2018-08-22T19:50:40.653Z,54.70
2018-08-22T19:53:08.648Z,54.80
2018-08-22T19:55:37.451Z,55.10
2018-08-22T19:58:05.843Z,55.00
2018-08-22T20:00:33.800Z,55.00
2018-08-22T20:03:02.108Z,55.00
2018-08-22T20:05:49.212Z,54.90
2018-08-22T20:08:17.184Z,55.00
2018-08-22T20:10:46.897Z,55.10
2018-08-22T20:13:14.848Z,55.20
2018-08-22T20:15:42.818Z,55.30
2018-08-22T20:18:10.781Z,55.40
2018-08-22T20:20:38.753Z,55.30
2018-08-22T20:23:06.841Z,55.70
2018-08-22T20:25:34.807Z,55.90
2018-08-22T20:28:02.824Z,55.90
2018-08-22T20:30:30.817Z,56.00
2018-08-22T20:33:04.201Z,56.90
2018-08-22T20:35:34.583Z,56.70
2018-08-22T20:38:03.975Z,57.20
2018-08-22T20:40:31.965Z,57.40
2018-08-22T20:42:59.966Z,57.70
2018-08-22T20:45:33.934Z,58.10
2018-08-22T20:48:07.351Z,57.60
2018-08-22T20:50:36.620Z,57.80
2018-08-22T20:53:05.826Z,58.30
2018-08-22T20:55:34.207Z,57.60
2018-08-22T20:58:03.204Z,57.70
2018-08-22T21:00:33.108Z,57.80
2018-08-22T21:03:01.170Z,57.80
2018-08-22T21:05:29.164Z,57.60
2018-08-22T21:07:57.224Z,57.50
2018-08-22T21:10:25.181Z,57.30
2018-08-22T21:12:53.209Z,57.00
2018-08-22T21:15:21.375Z,56.80
2018-08-22T21:17:49.324Z,56.50
2018-08-22T21:20:24.342Z,56.30
2018-08-22T21:22:53.350Z,56.30
2018-08-22T21:25:21.295Z,56.00
2018-08-22T21:27:50.112Z,55.90
2018-08-22T21:30:18.486Z,55.70
2018-08-22T21:32:47.687Z,55.60
2018-08-22T21:35:21.521Z,55.60
2018-08-22T21:37:49.468Z,55.60
2018-08-22T21:40:17.419Z,55.50
2018-08-22T21:42:45.494Z,54.90
2018-08-22T21:45:13.487Z,55.50
2018-08-22T21:47:41.528Z,55.50
2018-08-22T21:50:09.481Z,55.40
2018-08-22T21:52:48.345Z,55.20
2018-08-22T21:55:16.365Z,55.20
2018-08-22T21:57:44.409Z,55.20
2018-08-22T22:00:12.404Z,54.90
2018-08-22T22:02:44.409Z,55.00
2018-08-22T22:05:12.735Z,55.10
2018-08-22T22:07:40.768Z,54.90
2018-08-22T22:10:10.665Z,54.80
2018-08-22T22:12:39.769Z,54.70
2018-08-22T22:15:13.277Z,54.70
2018-08-22T22:17:43.322Z,54.70
2018-08-22T22:20:11.287Z,54.80
2018-08-22T22:22:39.407Z,54.80
2018-08-22T22:25:07.346Z,54.90
2018-08-22T22:27:35.327Z,55.50
2018-08-22T22:30:05.100Z,55.60
2018-08-22T22:32:33.635Z,56.00
2018-08-22T22:35:02.343Z,56.30
2018-08-22T22:37:30.359Z,56.10
2018-08-22T22:39:58.330Z,55.90
2018-08-22T22:42:27.494Z,56.00
2018-08-22T22:44:57.859Z,56.30
2018-08-22T22:47:27.831Z,56.20
2018-08-22T22:49:56.594Z,56.20
2018-08-22T22:52:30.386Z,56.40
2018-08-22T22:54:59.732Z,57.10
2018-08-22T22:57:29.156Z,57.80
2018-08-22T22:59:58.137Z,58.00
2018-08-22T23:02:26.811Z,58.20
2018-08-22T23:04:55.683Z,58.60
2018-08-22T23:07:28.474Z,58.10
2018-08-22T23:09:57.789Z,58.60
2018-08-22T23:12:31.269Z,59.00
2018-08-22T23:14:59.225Z,59.40
2018-08-22T23:17:27.638Z,60.10
2018-08-22T23:20:14.229Z,60.30
2018-08-22T23:22:42.201Z,60.30
2018-08-22T23:25:11.006Z,60.30
2018-08-22T23:27:40.091Z,60.40
2018-08-22T23:30:08.148Z,60.60
2018-08-22T23:32:36.974Z,60.60
2018-08-22T23:35:19.577Z,60.60
2018-08-22T23:37:50.602Z,61.10
2018-08-22T23:40:18.875Z,60.90
2018-08-22T23:42:46.860Z,61.00
2018-08-22T23:45:14.824Z,61.00
2018-08-22T23:47:42.770Z,61.00
2018-08-22T23:50:10.754Z,60.90
2018-08-22T23:52:44.116Z,60.80
2018-08-22T23:55:12.093Z,60.60
2018-08-22T23:57:40.061Z,60.60
